sensor_id;sensor_type;location;lat;lon;timestamp;pressure;altitude;pressure_sealevel;temperature;humidity
61961;BME280;47923;42.506;24.192;2023-04-08T00:02:07;95584.81;;;3.03;71.65
61961;BME280;47923;42.506;24.192;2023-04-08T00:04:33;95618.34;;;3.18;71.10
61961;BME280;47923;42.506;24.192;2023-04-08T00:06:58;95336.31;;;1.32;71.39
61961;BME280;47923;42.506;24.192;2023-04-08T00:09:23;95636.78;;;3.05;72.08
61961;BME280;47923;42.506;24.192;2023-04-08T00:11:49;95452.22;;;1.74;73.72
61961;BME280;47923;42.506;24.192;2023-04-08T00:14:14;95430.31;;;1.55;72.96
61961;BME280;47923;42.506;24.192;2023-04-08T00:16:40;95163.78;;;-0.28;73.86
61961;BME280;47923;42.506;24.192;2023-04-08T00:19:05;95622.84;;;2.64;69.83
61961;BME280;47923;42.506;24.192;2023-04-08T00:21:31;95637.16;;;2.90;71.51
61961;BME280;47923;42.506;24.192;2023-04-08T00:23:56;95641.59;;;2.95;72.76
61961;BME280;47923;42.506;24.192;2023-04-08T00:26:22;95105.00;;;-0.76;72.36
61961;BME280;47923;42.506;24.192;2023-04-08T00:28:48;95462.56;;;1.76;72.41
61961;BME280;47923;42.506;24.192;2023-04-08T00:31:13;95620.44;;;2.76;73.07
61961;BME280;47923;42.506;24.192;2023-04-08T00:33:38;95645.06;;;2.95;72.99
61961;BME280;47923;42.506;24.192;2023-04-08T00:36:04;95555.53;;;2.36;73.23
61961;BME280;47923;42.506;24.192;2023-04-08T00:38:30;95641.41;;;2.91;73.11
61961;BME280;47923;42.506;24.192;2023-04-08T00:40:55;95522.56;;;2.09;73.42
61961;BME280;47923;42.506;24.192;2023-04-08T00:43:21;95558.47;;;2.34;73.31
61961;BME280;47923;42.506;24.192;2023-04-08T00:45:47;95646.59;;;2.88;73.56
61961;BME280;47923;42.506;24.192;2023-04-08T00:48:12;95537.44;;;2.10;73.39
61961;BME280;47923;42.506;24.192;2023-04-08T00:50:38;95649.38;;;2.83;73.21
61961;BME280;47923;42.506;24.192;2023-04-08T00:53:04;95650.94;;;2.84;73.19
61961;BME280;47923;42.506;24.192;2023-04-08T00:55:29;95476.50;;;1.73;73.62
61961;BME280;47923;42.506;24.192;2023-04-08T00:57:55;95655.53;;;2.92;72.72
61961;BME280;47923;42.506;24.192;2023-04-08T01:00:21;95569.34;;;2.38;71.58
61961;BME280;47923;42.506;24.192;2023-04-08T01:03:00;95647.28;;;3.02;72.13
61961;BME280;47923;42.506;24.192;2023-04-08T01:05:39;95652.22;;;3.09;72.35
61961;BME280;47923;42.506;24.192;2023-04-08T01:08:10;95257.25;;;0.51;71.85
61961;BME280;47923;42.506;24.192;2023-04-08T01:10:38;95592.00;;;2.71;72.19
61961;BME280;47923;42.506;24.192;2023-04-08T01:13:13;95660.06;;;3.14;73.42
61961;BME280;47923;42.506;24.192;2023-04-08T01:15:43;95645.47;;;3.11;72.58
61961;BME280;47923;42.506;24.192;2023-04-08T01:18:13;95664.94;;;3.12;72.86
61961;BME280;47923;42.506;24.192;2023-04-08T01:20:41;95413.56;;;1.54;73.48
61961;BME280;47923;42.506;24.192;2023-04-08T01:23:29;95662.75;;;3.14;73.63
61961;BME280;47923;42.506;24.192;2023-04-08T01:25:57;95456.72;;;1.87;73.90
61961;BME280;47923;42.506;24.192;2023-04-08T01:28:26;95560.66;;;2.55;73.87
61961;BME280;47923;42.506;24.192;2023-04-08T01:30:54;95662.31;;;3.20;73.85
61961;BME280;47923;42.506;24.192;2023-04-08T01:33:21;95535.88;;;2.32;72.77
61961;BME280;47923;42.506;24.192;2023-04-08T01:35:47;95661.41;;;3.25;72.82
61961;BME280;47923;42.506;24.192;2023-04-08T01:38:15;95668.31;;;3.26;72.18
61961;BME280;47923;42.506;24.192;2023-04-08T01:40:44;95661.25;;;3.30;74.01
61961;BME280;47923;42.506;24.192;2023-04-08T01:43:13;95613.97;;;2.99;74.31
61961;BME280;47923;42.506;24.192;2023-04-08T01:45:41;95665.81;;;3.29;74.65
61961;BME280;47923;42.506;24.192;2023-04-08T01:48:07;95502.84;;;2.19;74.22
61961;BME280;47923;42.506;24.192;2023-04-08T01:50:33;95658.03;;;3.11;75.19
61961;BME280;47923;42.506;24.192;2023-04-08T01:53:01;95676.50;;;3.29;74.63
61961;BME280;47923;42.506;24.192;2023-04-08T01:55:29;95685.91;;;3.27;75.99
61961;BME280;47923;42.506;24.192;2023-04-08T01:57:58;95676.31;;;3.26;75.23
61961;BME280;47923;42.506;24.192;2023-04-08T02:00:28;95557.84;;;2.51;74.94
61961;BME280;47923;42.506;24.192;2023-04-08T02:02:54;95694.59;;;3.32;73.89
61961;BME280;47923;42.506;24.192;2023-04-08T02:05:20;95688.03;;;3.39;73.55
61961;BME280;47923;42.506;24.192;2023-04-08T02:07:49;95583.38;;;2.74;72.77
61961;BME280;47923;42.506;24.192;2023-04-08T02:10:15;95687.75;;;3.49;72.85
61961;BME280;47923;42.506;24.192;2023-04-08T02:12:41;95691.69;;;3.51;70.86
61961;BME280;47923;42.506;24.192;2023-04-08T02:15:07;95670.41;;;3.38;72.26
61961;BME280;47923;42.506;24.192;2023-04-08T02:17:55;95693.31;;;3.61;73.45
61961;BME280;47923;42.506;24.192;2023-04-08T02:20:26;95707.91;;;3.55;74.77
61961;BME280;47923;42.506;24.192;2023-04-08T02:25:28;95559.94;;;2.63;73.98
61961;BME280;47923;42.506;24.192;2023-04-08T02:27:55;95700.50;;;3.52;73.95
61961;BME280;47923;42.506;24.192;2023-04-08T02:30:22;95546.13;;;2.38;73.66
61961;BME280;47923;42.506;24.192;2023-04-08T02:32:50;95640.13;;;3.11;74.19
61961;BME280;47923;42.506;24.192;2023-04-08T02:35:17;95698.13;;;3.50;74.30
61961;BME280;47923;42.506;24.192;2023-04-08T02:37:45;95708.50;;;3.52;74.88
61961;BME280;47923;42.506;24.192;2023-04-08T02:40:29;95707.13;;;3.54;74.82
61961;BME280;47923;42.506;24.192;2023-04-08T02:42:55;95588.00;;;2.83;74.79
61961;BME280;47923;42.506;24.192;2023-04-08T02:45:22;95675.47;;;3.39;73.83
61961;BME280;47923;42.506;24.192;2023-04-08T02:47:50;95673.88;;;3.38;74.14
61961;BME280;47923;42.506;24.192;2023-04-08T02:50:15;95580.88;;;2.78;73.96
61961;BME280;47923;42.506;24.192;2023-04-08T02:52:41;95712.63;;;3.58;73.56
61961;BME280;47923;42.506;24.192;2023-04-08T02:55:08;95708.06;;;3.58;73.37
61961;BME280;47923;42.506;24.192;2023-04-08T02:57:35;95708.56;;;3.60;74.36
61961;BME280;47923;42.506;24.192;2023-04-08T03:00:04;95713.91;;;3.60;72.82
61961;BME280;47923;42.506;24.192;2023-04-08T03:02:30;95579.78;;;2.79;72.41
61961;BME280;47923;42.506;24.192;2023-04-08T03:04:56;95696.56;;;3.49;72.25
61961;BME280;47923;42.506;24.192;2023-04-08T03:07:21;95649.00;;;3.29;72.69
61961;BME280;47923;42.506;24.192;2023-04-08T03:09:46;95713.63;;;3.71;72.84
61961;BME280;47923;42.506;24.192;2023-04-08T03:12:12;95698.00;;;3.55;73.77
61961;BME280;47923;42.506;24.192;2023-04-08T03:14:37;95699.31;;;3.67;73.95
61961;BME280;47923;42.506;24.192;2023-04-08T03:17:03;95704.38;;;3.77;73.21
61961;BME280;47923;42.506;24.192;2023-04-08T03:19:28;95653.81;;;3.49;73.17
61961;BME280;47923;42.506;24.192;2023-04-08T03:21:54;95684.06;;;3.67;73.62
61961;BME280;47923;42.506;24.192;2023-04-08T03:24:19;95712.75;;;3.84;75.09
61961;BME280;47923;42.506;24.192;2023-04-08T03:26:44;95478.28;;;2.22;74.05
61961;BME280;47923;42.506;24.192;2023-04-08T03:29:10;95593.63;;;3.12;74.76
61961;BME280;47923;42.506;24.192;2023-04-08T03:31:35;95718.44;;;3.91;73.14
61961;BME280;47923;42.506;24.192;2023-04-08T03:34:01;95707.25;;;3.89;72.75
61961;BME280;47923;42.506;24.192;2023-04-08T03:36:26;95717.38;;;4.01;73.53
61961;BME280;47923;42.506;24.192;2023-04-08T03:38:52;95720.22;;;4.04;75.33
61961;BME280;47923;42.506;24.192;2023-04-08T03:41:17;95263.94;;;0.85;75.48
61961;BME280;47923;42.506;24.192;2023-04-08T03:43:43;95717.56;;;4.04;75.55
61961;BME280;47923;42.506;24.192;2023-04-08T03:46:08;95718.63;;;4.03;75.42
61961;BME280;47923;42.506;24.192;2023-04-08T03:48:34;95650.53;;;3.52;75.56
61961;BME280;47923;42.506;24.192;2023-04-08T03:50:59;95610.72;;;3.33;76.23
61961;BME280;47923;42.506;24.192;2023-04-08T03:53:25;95431.78;;;2.06;76.39
61961;BME280;47923;42.506;24.192;2023-04-08T03:55:53;95261.66;;;1.15;76.50
61961;BME280;47923;42.506;24.192;2023-04-08T03:58:18;95447.75;;;2.28;76.68
61961;BME280;47923;42.506;24.192;2023-04-08T04:00:44;95660.47;;;3.60;77.16
61961;BME280;47923;42.506;24.192;2023-04-08T04:03:09;95721.81;;;4.14;77.23
61961;BME280;47923;42.506;24.192;2023-04-08T04:05:37;95640.81;;;3.56;77.46
61961;BME280;47923;42.506;24.192;2023-04-08T04:08:03;95722.28;;;4.16;77.59
61961;BME280;47923;42.506;24.192;2023-04-08T04:10:29;95431.88;;;2.23;77.04
61961;BME280;47923;42.506;24.192;2023-04-08T04:12:54;95552.00;;;3.02;77.47
61961;BME280;47923;42.506;24.192;2023-04-08T04:15:19;95690.28;;;3.94;76.92
61961;BME280;47923;42.506;24.192;2023-04-08T04:17:48;95547.44;;;3.03;76.79
61961;BME280;47923;42.506;24.192;2023-04-08T04:20:15;95741.34;;;4.23;77.31
61961;BME280;47923;42.506;24.192;2023-04-08T04:22:41;95528.97;;;2.84;76.39
61961;BME280;47923;42.506;24.192;2023-04-08T04:25:07;95710.03;;;4.15;76.47
61961;BME280;47923;42.506;24.192;2023-04-08T04:27:33;95707.50;;;4.19;75.88
61961;BME280;47923;42.506;24.192;2023-04-08T04:30:00;95677.41;;;3.96;75.76
61961;BME280;47923;42.506;24.192;2023-04-08T04:32:26;95737.91;;;4.40;75.44
61961;BME280;47923;42.506;24.192;2023-04-08T04:34:52;95474.91;;;2.70;74.85
61961;BME280;47923;42.506;24.192;2023-04-08T04:37:17;95668.13;;;3.93;74.23
61961;BME280;47923;42.506;24.192;2023-04-08T04:39:43;95663.59;;;4.02;74.46
61961;BME280;47923;42.506;24.192;2023-04-08T04:42:08;95728.00;;;4.40;73.79
61961;BME280;47923;42.506;24.192;2023-04-08T04:44:34;95744.44;;;4.65;72.83
61961;BME280;47923;42.506;24.192;2023-04-08T04:46:59;95664.25;;;4.16;73.33
61961;BME280;47923;42.506;24.192;2023-04-08T04:49:25;95757.81;;;4.74;73.06
61961;BME280;47923;42.506;24.192;2023-04-08T04:51:50;95751.38;;;4.75;73.10
61961;BME280;47923;42.506;24.192;2023-04-08T04:54:15;95561.59;;;3.52;73.15
61961;BME280;47923;42.506;24.192;2023-04-08T04:56:41;95758.16;;;4.81;72.96
61961;BME280;47923;42.506;24.192;2023-04-08T04:59:07;95765.06;;;4.82;72.77
61961;BME280;47923;42.506;24.192;2023-04-08T05:01:33;95768.41;;;4.87;72.02
61961;BME280;47923;42.506;24.192;2023-04-08T05:03:58;95777.06;;;4.93;70.90
61961;BME280;47923;42.506;24.192;2023-04-08T05:06:24;95663.00;;;4.31;71.27
61961;BME280;47923;42.506;24.192;2023-04-08T05:08:51;95770.16;;;5.09;71.22
61961;BME280;47923;42.506;24.192;2023-04-08T05:11:16;95770.16;;;5.09;71.27
61961;BME280;47923;42.506;24.192;2023-04-08T05:13:43;95426.66;;;2.89;71.65
61961;BME280;47923;42.506;24.192;2023-04-08T05:16:09;95768.88;;;5.15;71.51
61961;BME280;47923;42.506;24.192;2023-04-08T05:18:34;95192.63;;;1.41;70.68
61961;BME280;47923;42.506;24.192;2023-04-08T05:21:00;95723.19;;;4.94;70.71
61961;BME280;47923;42.506;24.192;2023-04-08T05:23:26;95771.88;;;5.31;70.72
61961;BME280;47923;42.506;24.192;2023-04-08T05:25:51;95571.59;;;4.03;70.27
61961;BME280;47923;42.506;24.192;2023-04-08T05:28:17;95757.38;;;5.32;70.57
61961;BME280;47923;42.506;24.192;2023-04-08T05:30:48;95655.34;;;4.64;70.38
61961;BME280;47923;42.506;24.192;2023-04-08T05:33:13;95765.06;;;5.42;69.19
61961;BME280;47923;42.506;24.192;2023-04-08T05:35:38;95766.81;;;5.47;69.40
61961;BME280;47923;42.506;24.192;2023-04-08T05:38:04;95644.31;;;4.66;69.89
61961;BME280;47923;42.506;24.192;2023-04-08T05:40:30;95765.25;;;5.46;70.98
61961;BME280;47923;42.506;24.192;2023-04-08T05:42:56;95791.88;;;5.42;71.36
61961;BME280;47923;42.506;24.192;2023-04-08T05:45:21;95707.59;;;5.14;70.54
61961;BME280;47923;42.506;24.192;2023-04-08T05:47:47;95763.47;;;5.67;70.55
61961;BME280;47923;42.506;24.192;2023-04-08T05:50:12;95770.22;;;5.82;70.06
61961;BME280;47923;42.506;24.192;2023-04-08T05:52:42;95760.44;;;5.77;70.08
61961;BME280;47923;42.506;24.192;2023-04-08T05:55:09;95773.66;;;6.00;69.04
61961;BME280;47923;42.506;24.192;2023-04-08T05:57:35;95782.63;;;6.04;69.93
61961;BME280;47923;42.506;24.192;2023-04-08T06:00:00;95681.41;;;5.37;69.75
61961;BME280;47923;42.506;24.192;2023-04-08T06:02:26;95774.75;;;5.99;70.75
61961;BME280;47923;42.506;24.192;2023-04-08T06:04:51;95596.44;;;4.82;69.87
61961;BME280;47923;42.506;24.192;2023-04-08T06:07:17;95722.00;;;5.56;70.63
61961;BME280;47923;42.506;24.192;2023-04-08T06:09:42;95703.13;;;5.35;71.44
61961;BME280;47923;42.506;24.192;2023-04-08T06:12:07;95657.50;;;5.14;71.94
61961;BME280;47923;42.506;24.192;2023-04-08T06:14:33;95646.31;;;5.12;71.55
61961;BME280;47923;42.506;24.192;2023-04-08T06:16:58;95767.03;;;5.97;71.13
61961;BME280;47923;42.506;24.192;2023-04-08T06:19:24;95746.13;;;5.73;71.41
61961;BME280;47923;42.506;24.192;2023-04-08T06:21:49;95761.81;;;6.01;71.08
61961;BME280;47923;42.506;24.192;2023-04-08T06:24:16;95768.56;;;6.07;70.95
61961;BME280;47923;42.506;24.192;2023-04-08T06:26:41;95768.56;;;6.07;71.52
61961;BME280;47923;42.506;24.192;2023-04-08T06:29:07;95763.41;;;5.85;72.51
61961;BME280;47923;42.506;24.192;2023-04-08T06:31:32;95749.56;;;5.82;73.07
61961;BME280;47923;42.506;24.192;2023-04-08T06:33:58;95313.34;;;3.12;73.49
61961;BME280;47923;42.506;24.192;2023-04-08T06:36:23;95300.78;;;3.21;73.62
61961;BME280;47923;42.506;24.192;2023-04-08T06:38:49;95735.72;;;6.19;73.66
61961;BME280;47923;42.506;24.192;2023-04-08T06:41:14;95554.78;;;5.10;73.19
61961;BME280;47923;42.506;24.192;2023-04-08T06:43:40;95301.38;;;3.62;72.74
61961;BME280;47923;42.506;24.192;2023-04-08T06:46:05;95743.28;;;6.55;73.12
61961;BME280;47923;42.506;24.192;2023-04-08T06:48:31;95771.44;;;6.70;72.90
61961;BME280;47923;42.506;24.192;2023-04-08T06:50:57;95766.94;;;6.82;72.60
61961;BME280;47923;42.506;24.192;2023-04-08T06:53:23;95761.53;;;6.91;72.13
61961;BME280;47923;42.506;24.192;2023-04-08T06:55:49;95760.91;;;6.85;72.03
61961;BME280;47923;42.506;24.192;2023-04-08T06:58:14;95744.63;;;6.90;71.77
61961;BME280;47923;42.506;24.192;2023-04-08T07:00:41;95764.53;;;7.31;71.18
61961;BME280;47923;42.506;24.192;2023-04-08T07:03:06;95623.03;;;6.60;69.73
61961;BME280;47923;42.506;24.192;2023-04-08T07:05:34;95754.19;;;7.87;67.38
61961;BME280;47923;42.506;24.192;2023-04-08T07:08:01;95693.47;;;7.53;67.57
61961;BME280;47923;42.506;24.192;2023-04-08T07:10:26;95761.13;;;8.00;67.84
61961;BME280;47923;42.506;24.192;2023-04-08T07:12:53;95608.09;;;6.92;67.27
61961;BME280;47923;42.506;24.192;2023-04-08T07:15:18;95768.38;;;7.75;67.63
61961;BME280;47923;42.506;24.192;2023-04-08T07:17:44;95696.75;;;7.05;67.27
61961;BME280;47923;42.506;24.192;2023-04-08T07:20:13;95770.69;;;7.32;68.82
61961;BME280;47923;42.506;24.192;2023-04-08T07:22:39;95713.56;;;6.81;70.72
61961;BME280;47923;42.506;24.192;2023-04-08T07:25:05;95771.94;;;6.92;70.99
61961;BME280;47923;42.506;24.192;2023-04-08T07:27:33;95770.75;;;7.02;71.15
61961;BME280;47923;42.506;24.192;2023-04-08T07:29:58;95770.88;;;7.27;70.90
61961;BME280;47923;42.506;24.192;2023-04-08T07:32:24;95777.84;;;7.61;69.22
61961;BME280;47923;42.506;24.192;2023-04-08T07:34:49;95640.34;;;7.38;67.60
61961;BME280;47923;42.506;24.192;2023-04-08T07:37:15;95765.72;;;8.57;65.14
61961;BME280;47923;42.506;24.192;2023-04-08T07:39:42;95754.34;;;8.89;64.18
61961;BME280;47923;42.506;24.192;2023-04-08T07:42:07;95636.94;;;8.23;63.46
61961;BME280;47923;42.506;24.192;2023-04-08T07:44:32;95785.66;;;9.05;63.99
61961;BME280;47923;42.506;24.192;2023-04-08T07:46:58;95777.16;;;8.54;65.66
61961;BME280;47923;42.506;24.192;2023-04-08T07:49:23;95633.09;;;7.63;65.31
61961;BME280;47923;42.506;24.192;2023-04-08T07:51:49;95566.19;;;6.79;67.12
61961;BME280;47923;42.506;24.192;2023-04-08T07:54:15;95794.94;;;8.35;66.89
61961;BME280;47923;42.506;24.192;2023-04-08T07:56:42;95786.53;;;8.24;67.90
61961;BME280;47923;42.506;24.192;2023-04-08T07:59:09;95800.28;;;8.55;66.12
61961;BME280;47923;42.506;24.192;2023-04-08T08:01:35;95768.28;;;7.84;67.90
61961;BME280;47923;42.506;24.192;2023-04-08T08:04:01;95706.19;;;7.32;68.11
61961;BME280;47923;42.506;24.192;2023-04-08T08:06:26;95792.03;;;8.15;68.58
61961;BME280;47923;42.506;24.192;2023-04-08T08:08:52;95795.06;;;8.26;67.84
61961;BME280;47923;42.506;24.192;2023-04-08T08:11:18;95794.72;;;8.15;68.07
61961;BME280;47923;42.506;24.192;2023-04-08T08:13:43;95642.00;;;7.30;67.89
61961;BME280;47923;42.506;24.192;2023-04-08T08:16:09;95647.44;;;7.42;67.96
61961;BME280;47923;42.506;24.192;2023-04-08T08:18:36;95793.53;;;8.74;66.47
61961;BME280;47923;42.506;24.192;2023-04-08T08:21:02;95497.59;;;6.82;66.25
61961;BME280;47923;42.506;24.192;2023-04-08T08:23:28;95789.06;;;8.53;66.63
61961;BME280;47923;42.506;24.192;2023-04-08T08:26:04;95742.91;;;8.18;67.13
61961;BME280;47923;42.506;24.192;2023-04-08T08:28:34;95800.91;;;9.01;65.59
61961;BME280;47923;42.506;24.192;2023-04-08T08:30:59;95773.91;;;9.54;63.78
61961;BME280;47923;42.506;24.192;2023-04-08T08:33:25;95798.06;;;11.01;58.90
61961;BME280;47923;42.506;24.192;2023-04-08T08:35:51;95525.47;;;10.06;56.43
61961;BME280;47923;42.506;24.192;2023-04-08T08:38:17;95567.97;;;11.71;51.98
61961;BME280;47923;42.506;24.192;2023-04-08T08:40:43;95792.22;;;14.71;47.27
61961;BME280;47923;42.506;24.192;2023-04-08T08:43:11;95792.31;;;15.47;44.96
61961;BME280;47923;42.506;24.192;2023-04-08T08:45:40;95784.03;;;16.02;43.03
61961;BME280;47923;42.506;24.192;2023-04-08T08:48:09;95789.94;;;16.44;42.08
61961;BME280;47923;42.506;24.192;2023-04-08T08:50:35;95702.81;;;14.66;43.74
61961;BME280;47923;42.506;24.192;2023-04-08T08:53:01;95793.13;;;14.89;43.99
61961;BME280;47923;42.506;24.192;2023-04-08T08:55:29;95709.03;;;14.63;43.24
61961;BME280;47923;42.506;24.192;2023-04-08T08:57:56;95675.41;;;16.12;40.66
61961;BME280;47923;42.506;24.192;2023-04-08T09:00:35;95789.22;;;16.86;39.53
61961;BME280;47923;42.506;24.192;2023-04-08T09:03:24;95763.34;;;15.91;41.67
61961;BME280;47923;42.506;24.192;2023-04-08T09:06:00;95788.00;;;16.41;40.78
61961;BME280;47923;42.506;24.192;2023-04-08T09:10:56;95614.13;;;13.18;45.05
61961;BME280;47923;42.506;24.192;2023-04-08T09:13:35;95763.97;;;14.42;44.51
61961;BME280;47923;42.506;24.192;2023-04-08T09:16:09;95664.69;;;13.30;45.09
61961;BME280;47923;42.506;24.192;2023-04-08T09:18:35;95791.84;;;14.73;44.36
61961;BME280;47923;42.506;24.192;2023-04-08T09:21:03;95592.25;;;14.26;42.87
61961;BME280;47923;42.506;24.192;2023-04-08T09:23:55;95685.47;;;18.02;37.32
61961;BME280;47923;42.506;24.192;2023-04-08T09:26:23;95774.88;;;18.64;36.00
61961;BME280;47923;42.506;24.192;2023-04-08T09:29:02;95774.50;;;18.69;35.73
61961;BME280;47923;42.506;24.192;2023-04-08T09:31:29;95620.56;;;17.51;36.12
61961;BME280;47923;42.506;24.192;2023-04-08T09:33:57;95772.31;;;18.95;35.26
61961;BME280;47923;42.506;24.192;2023-04-08T09:36:24;95770.16;;;18.13;36.62
61961;BME280;47923;42.506;24.192;2023-04-08T09:38:53;95651.59;;;16.98;36.07
61961;BME280;47923;42.506;24.192;2023-04-08T09:41:20;95776.25;;;18.38;35.12
61961;BME280;47923;42.506;24.192;2023-04-08T09:43:51;95785.81;;;19.61;32.44
61961;BME280;47923;42.506;24.192;2023-04-08T09:46:25;95730.19;;;17.53;34.37
61961;BME280;47923;42.506;24.192;2023-04-08T09:49:00;95599.69;;;15.09;37.77
61961;BME280;47923;42.506;24.192;2023-04-08T09:51:39;95781.84;;;15.53;39.46
61961;BME280;47923;42.506;24.192;2023-04-08T09:54:13;95616.16;;;14.06;41.29
61961;BME280;47923;42.506;24.192;2023-04-08T09:56:48;95769.13;;;15.79;39.36
61961;BME280;47923;42.506;24.192;2023-04-08T09:59:14;95770.50;;;16.99;37.39
61961;BME280;47923;42.506;24.192;2023-04-08T10:01:46;95723.09;;;17.80;36.68
61961;BME280;47923;42.506;24.192;2023-04-08T10:04:15;95688.16;;;18.58;33.87
61961;BME280;47923;42.506;24.192;2023-04-08T10:06:42;95757.78;;;19.01;32.70
61961;BME280;47923;42.506;24.192;2023-04-08T10:09:08;95704.72;;;18.92;32.84
61961;BME280;47923;42.506;24.192;2023-04-08T10:11:34;95754.53;;;20.74;29.22
61961;BME280;47923;42.506;24.192;2023-04-08T10:14:01;95745.78;;;22.25;27.76
61961;BME280;47923;42.506;24.192;2023-04-08T10:16:27;95716.94;;;21.77;27.34
61961;BME280;47923;42.506;24.192;2023-04-08T10:18:54;95746.34;;;21.17;29.05
61961;BME280;47923;42.506;24.192;2023-04-08T10:21:53;95729.69;;;21.47;28.07
61961;BME280;47923;42.506;24.192;2023-04-08T10:24:18;95742.47;;;22.33;27.24
61961;BME280;47923;42.506;24.192;2023-04-08T10:26:48;95748.31;;;20.69;28.53
61961;BME280;47923;42.506;24.192;2023-04-08T10:31:46;95745.19;;;20.40;28.67
61961;BME280;47923;42.506;24.192;2023-04-08T10:34:22;95730.03;;;20.32;29.35
61961;BME280;47923;42.506;24.192;2023-04-08T10:36:53;95749.44;;;18.15;31.33
61961;BME280;47923;42.506;24.192;2023-04-08T10:39:20;95623.09;;;17.09;33.32
61961;BME280;47923;42.506;24.192;2023-04-08T10:41:47;95744.16;;;17.69;32.87
61961;BME280;47923;42.506;24.192;2023-04-08T10:44:18;95740.69;;;17.72;33.23
61961;BME280;47923;42.506;24.192;2023-04-08T10:46:47;95716.53;;;17.53;33.09
61961;BME280;47923;42.506;24.192;2023-04-08T10:49:14;95556.25;;;15.48;35.23
61961;BME280;47923;42.506;24.192;2023-04-08T10:51:41;95749.81;;;16.34;34.83
61961;BME280;47923;42.506;24.192;2023-04-08T10:54:10;95633.22;;;15.31;35.83
61961;BME280;47923;42.506;24.192;2023-04-08T10:56:46;95689.56;;;15.23;37.27
61961;BME280;47923;42.506;24.192;2023-04-08T10:59:12;95730.94;;;15.57;37.37
61961;BME280;47923;42.506;24.192;2023-04-08T11:01:41;95740.69;;;14.41;38.84
61961;BME280;47923;42.506;24.192;2023-04-08T11:04:14;95141.19;;;10.41;39.20
61961;BME280;47923;42.506;24.192;2023-04-08T11:06:41;95666.44;;;13.15;40.15
61961;BME280;47923;42.506;24.192;2023-04-08T11:09:07;95740.97;;;13.24;41.87
61961;BME280;47923;42.506;24.192;2023-04-08T11:11:33;95738.38;;;12.79;43.66
61961;BME280;47923;42.506;24.192;2023-04-08T11:13:59;95725.94;;;13.04;44.16
61961;BME280;47923;42.506;24.192;2023-04-08T11:16:26;95558.66;;;12.18;43.04
61961;BME280;47923;42.506;24.192;2023-04-08T11:18:52;95664.19;;;13.20;41.86
61961;BME280;47923;42.506;24.192;2023-04-08T11:21:18;95535.72;;;12.38;41.95
61961;BME280;47923;42.506;24.192;2023-04-08T11:23:44;95588.31;;;12.94;41.37
61961;BME280;47923;42.506;24.192;2023-04-08T11:26:10;95675.47;;;12.66;43.26
61961;BME280;47923;42.506;24.192;2023-04-08T11:28:36;95721.50;;;13.19;43.40
61961;BME280;47923;42.506;24.192;2023-04-08T11:31:02;95717.69;;;13.53;43.08
61961;BME280;47923;42.506;24.192;2023-04-08T11:33:31;95521.97;;;12.24;42.92
61961;BME280;47923;42.506;24.192;2023-04-08T11:35:56;95688.94;;;13.19;41.98
61961;BME280;47923;42.506;24.192;2023-04-08T11:38:23;95708.03;;;12.96;42.72
61961;BME280;47923;42.506;24.192;2023-04-08T11:40:56;95696.31;;;12.62;43.63
61961;BME280;47923;42.506;24.192;2023-04-08T11:43:22;95696.47;;;12.72;44.30
61961;BME280;47923;42.506;24.192;2023-04-08T11:45:49;95706.25;;;12.81;43.33
61961;BME280;47923;42.506;24.192;2023-04-08T11:48:16;95531.06;;;11.37;43.86
61961;BME280;47923;42.506;24.192;2023-04-08T11:50:42;95306.81;;;10.48;43.00
61961;BME280;47923;42.506;24.192;2023-04-08T11:53:23;95672.97;;;13.14;42.41
61961;BME280;47923;42.506;24.192;2023-04-08T11:55:49;95477.94;;;11.97;40.52
61961;BME280;47923;42.506;24.192;2023-04-08T11:58:15;95555.00;;;12.33;39.96
61961;BME280;47923;42.506;24.192;2023-04-08T12:00:41;95434.59;;;11.97;39.31
61961;BME280;47923;42.506;24.192;2023-04-08T12:03:07;95680.88;;;13.22;40.24
61961;BME280;47923;42.506;24.192;2023-04-08T12:05:33;95599.78;;;12.84;39.47
61961;BME280;47923;42.506;24.192;2023-04-08T12:07:58;95549.31;;;12.72;39.18
61961;BME280;47923;42.506;24.192;2023-04-08T12:10:24;95649.69;;;13.39;39.60
61961;BME280;47923;42.506;24.192;2023-04-08T12:12:50;95663.09;;;14.03;40.23
61961;BME280;47923;42.506;24.192;2023-04-08T12:15:15;95660.56;;;13.80;40.26
61961;BME280;47923;42.506;24.192;2023-04-08T12:17:41;95574.81;;;13.01;41.38
61961;BME280;47923;42.506;24.192;2023-04-08T12:20:09;95603.22;;;13.11;40.76
61961;BME280;47923;42.506;24.192;2023-04-08T12:22:35;95666.44;;;13.48;40.57
61961;BME280;47923;42.506;24.192;2023-04-08T12:25:00;95661.94;;;12.99;41.83
61961;BME280;47923;42.506;24.192;2023-04-08T12:27:28;95549.66;;;12.10;42.00
61961;BME280;47923;42.506;24.192;2023-04-08T12:29:53;95661.06;;;12.92;41.95
61961;BME280;47923;42.506;24.192;2023-04-08T12:32:19;95611.50;;;12.91;41.84
61961;BME280;47923;42.506;24.192;2023-04-08T12:34:45;95656.69;;;13.10;43.04
61961;BME280;47923;42.506;24.192;2023-04-08T12:37:11;95664.06;;;13.13;42.55
61961;BME280;47923;42.506;24.192;2023-04-08T12:39:37;95385.19;;;11.47;43.31
61961;BME280;47923;42.506;24.192;2023-04-08T12:42:03;95661.69;;;13.08;44.10
61961;BME280;47923;42.506;24.192;2023-04-08T12:44:28;95648.06;;;12.44;46.15
61961;BME280;47923;42.506;24.192;2023-04-08T12:46:54;95431.88;;;11.18;46.31
61961;BME280;47923;42.506;24.192;2023-04-08T12:49:20;95591.34;;;12.32;45.13
61961;BME280;47923;42.506;24.192;2023-04-08T12:51:46;95657.63;;;12.65;45.84
61961;BME280;47923;42.506;24.192;2023-04-08T12:54:11;95647.91;;;12.34;46.65
61961;BME280;47923;42.506;24.192;2023-04-08T12:56:37;95655.91;;;12.53;46.86
61961;BME280;47923;42.506;24.192;2023-04-08T12:59:03;95459.34;;;10.97;47.57
61961;BME280;47923;42.506;24.192;2023-04-08T13:01:29;95403.22;;;10.67;48.14
61961;BME280;47923;42.506;24.192;2023-04-08T13:03:54;95662.84;;;12.01;47.45
61961;BME280;47923;42.506;24.192;2023-04-08T13:06:20;95646.38;;;11.87;48.02